Time;durP1;ratioP1;P1;durP2;ratioP2;P2;SDS_P1;SDS_P2;PMS_P1;PMS_P2;Temp;Humidity;BMP_temperature;BMP_pressure;BME280_temperature;BME280_humidity;BME280_pressure;Samples;Min_cycle;Max_cycle;Signal;HPM_P1;HPM_P2
2021/05/20 00:00:25;;;;;;;2.50;2.05;;;11.30;99.90;;;;;;5011681;28;20993;-64
2021/05/20 00:02:53;;;;;;;5.20;2.57;;;11.30;99.90;;;;;;5011023;28;20570;-64
2021/05/20 00:05:22;;;;;;;3.70;2.10;;;11.30;99.90;;;;;;5011382;28;20441;-65
2021/05/20 00:07:50;;;;;;;2.93;2.10;;;11.30;99.90;;;;;;5011082;28;20233;-65
2021/05/20 00:10:18;;;;;;;2.70;2.50;;;11.30;99.90;;;;;;5011619;28;21009;-64
2021/05/20 00:12:46;;;;;;;3.30;2.60;;;11.30;99.90;;;;;;5013816;28;20213;-65
2021/05/20 00:15:15;;;;;;;3.60;2.40;;;11.30;99.90;;;;;;5015674;28;20765;-65
2021/05/20 00:17:44;;;;;;;4.50;2.70;;;11.30;99.90;;;;;;5015574;28;20461;-66
2021/05/20 00:20:13;;;;;;;2.28;2.03;;;11.30;99.90;;;;;;5015141;28;20580;-66
2021/05/20 00:22:42;;;;;;;3.40;2.93;;;11.30;99.90;;;;;;5016000;28;20581;-66
2021/05/20 00:25:10;;;;;;;4.00;2.40;;;11.20;99.90;;;;;;5013718;28;20439;-66
2021/05/20 00:27:38;;;;;;;2.60;2.40;;;11.10;99.90;;;;;;5014166;28;20472;-66
2021/05/20 00:30:08;;;;;;;2.70;2.30;;;11.10;99.90;;;;;;5009984;28;20437;-66
2021/05/20 00:32:36;;;;;;;2.88;2.20;;;11.10;99.90;;;;;;5010821;28;20214;-66
2021/05/20 00:35:04;;;;;;;2.20;1.90;;;11.10;99.90;;;;;;5011378;28;20602;-65
2021/05/20 00:37:32;;;;;;;3.60;2.85;;;11.00;99.90;;;;;;5011213;28;20194;-66
2021/05/20 00:40:00;;;;;;;2.20;2.00;;;11.00;99.90;;;;;;5009844;28;20662;-66
2021/05/20 00:42:28;;;;;;;3.50;3.00;;;10.90;99.90;;;;;;5010809;28;20453;-67
2021/05/20 00:44:57;;;;;;;2.40;2.20;;;10.90;99.90;;;;;;5010085;28;20194;-66
2021/05/20 00:47:27;;;;;;;2.15;1.88;;;10.90;99.90;;;;;;5010925;28;20206;-66
2021/05/20 00:49:54;;;;;;;3.78;1.88;;;10.90;99.90;;;;;;5011501;28;20206;-66
2021/05/20 00:52:22;;;;;;;2.90;2.70;;;10.90;99.90;;;;;;5010597;28;20206;-66
2021/05/20 00:54:54;;;;;;;3.15;2.65;;;10.90;99.90;;;;;;5010707;28;20424;-66
2021/05/20 00:57:23;;;;;;;4.80;3.13;;;10.90;99.90;;;;;;5010636;28;20229;-66
2021/05/20 00:59:51;;;;;;;3.88;3.08;;;10.80;99.90;;;;;;5010758;28;20613;-66
2021/05/20 01:02:20;;;;;;;3.83;2.07;;;10.80;99.90;;;;;;5010427;28;20210;-66
2021/05/20 01:04:48;;;;;;;3.05;2.75;;;10.80;99.90;;;;;;5010798;28;20938;-65
2021/05/20 01:07:16;;;;;;;2.03;1.83;;;10.80;99.90;;;;;;5010445;28;20268;-65
2021/05/20 01:09:43;;;;;;;2.75;2.33;;;10.80;99.90;;;;;;5010785;28;20413;-65
2021/05/20 01:12:12;;;;;;;1.92;1.73;;;10.70;99.90;;;;;;5010450;28;20198;-64
2021/05/20 01:14:42;;;;;;;3.70;3.00;;;10.70;99.90;;;;;;5011323;28;20205;-66
2021/05/20 01:17:11;;;;;;;2.38;2.10;;;10.80;99.90;;;;;;5011456;28;20190;-65
2021/05/20 01:19:45;;;;;;;2.65;2.00;;;10.80;99.90;;;;;;5011112;28;20193;-66
2021/05/20 01:22:13;;;;;;;2.78;2.10;;;10.70;99.90;;;;;;5009061;28;20202;-66
2021/05/20 01:24:41;;;;;;;2.80;2.60;;;10.70;99.90;;;;;;5010529;28;20186;-66
2021/05/20 01:27:11;;;;;;;2.75;2.50;;;10.70;99.90;;;;;;5010663;28;20185;-66
2021/05/20 01:29:40;;;;;;;2.78;2.05;;;10.70;99.90;;;;;;5010520;28;20221;-66
2021/05/20 01:32:22;;;;;;;3.20;2.20;;;10.70;99.90;;;;;;4949652;29;20258;-65
2021/05/20 01:34:56;;;;;;;2.60;2.05;;;10.70;99.90;;;;;;4949732;29;20204;-66
2021/05/20 01:37:25;;;;;;;3.38;2.10;;;10.70;99.90;;;;;;4949860;29;20763;-66
2021/05/20 01:39:52;;;;;;;3.28;2.20;;;10.70;99.90;;;;;;4949898;29;20211;-66
2021/05/20 01:42:20;;;;;;;2.20;1.80;;;10.70;99.90;;;;;;4949576;29;20600;-65
2021/05/20 01:44:48;;;;;;;2.88;2.58;;;10.80;99.90;;;;;;4949563;29;20680;-65
2021/05/20 01:47:16;;;;;;;2.30;2.10;;;10.80;99.90;;;;;;4949907;28;20633;-65
2021/05/20 01:49:50;;;;;;;2.38;2.15;;;10.80;99.90;;;;;;4949787;29;20228;-65
2021/05/20 01:52:19;;;;;;;2.50;2.30;;;10.70;99.90;;;;;;4949421;29;20222;-65
2021/05/20 01:54:48;;;;;;;5.70;2.33;;;10.80;99.90;;;;;;4949940;29;20196;-65
2021/05/20 01:57:15;;;;;;;2.50;1.95;;;10.70;99.90;;;;;;4952049;28;20207;-65
2021/05/20 01:59:43;;;;;;;2.88;2.15;;;10.80;99.90;;;;;;4954122;29;20189;-65
2021/05/20 02:02:11;;;;;;;3.53;2.90;;;10.80;99.90;;;;;;4954054;29;20247;-65
2021/05/20 02:04:39;;;;;;;2.97;2.00;;;10.70;99.90;;;;;;4955706;29;20287;-66
2021/05/20 02:07:06;;;;;;;2.67;2.47;;;10.70;99.90;;;;;;4956297;29;20306;-66
2021/05/20 02:09:34;;;;;;;1.65;1.40;;;10.70;99.90;;;;;;4990706;28;20217;-65
2021/05/20 02:12:03;;;;;;;2.75;2.47;;;10.70;99.90;;;;;;5013387;28;20562;-66
2021/05/20 02:14:31;;;;;;;3.15;2.03;;;10.60;99.90;;;;;;5013336;28;20754;-66
2021/05/20 02:16:58;;;;;;;3.38;2.30;;;10.60;99.90;;;;;;5013608;28;20197;-66
2021/05/20 02:19:26;;;;;;;2.85;1.90;;;10.60;99.90;;;;;;5013252;28;20186;-66
2021/05/20 02:21:54;;;;;;;3.33;2.55;;;10.60;99.90;;;;;;5011928;28;20202;-66
2021/05/20 02:24:22;;;;;;;2.58;2.33;;;10.50;99.90;;;;;;5013047;28;20194;-65
2021/05/20 02:26:49;;;;;;;2.60;2.40;;;10.50;99.90;;;;;;5018690;23;20581;-65
2021/05/20 02:29:18;;;;;;;2.78;2.20;;;10.40;99.90;;;;;;4983264;28;20205;-65
2021/05/20 02:31:45;;;;;;;2.30;2.08;;;10.40;99.90;;;;;;5012915;28;20182;-65
2021/05/20 02:34:14;;;;;;;2.28;1.90;;;10.50;99.90;;;;;;5012671;28;20210;-64
2021/05/20 02:36:41;;;;;;;2.65;2.45;;;10.50;99.90;;;;;;5012786;28;20547;-64
2021/05/20 02:39:09;;;;;;;3.70;2.30;;;10.50;99.90;;;;;;5012971;28;20177;-64
2021/05/20 02:41:37;;;;;;;2.63;2.38;;;10.40;99.90;;;;;;5011971;28;20237;-64
2021/05/20 02:44:05;;;;;;;2.20;2.00;;;10.40;99.90;;;;;;5013163;28;20210;-64
2021/05/20 02:46:33;;;;;;;2.63;2.28;;;10.40;99.90;;;;;;5013188;28;20224;-64
2021/05/20 02:49:01;;;;;;;2.28;2.08;;;10.40;99.90;;;;;;5013079;28;20233;-64
2021/05/20 02:51:28;;;;;;;3.30;3.00;;;10.40;99.90;;;;;;5012661;28;20185;-64
2021/05/20 02:53:56;;;;;;;2.00;1.73;;;10.40;99.90;;;;;;5012500;28;20640;-64
2021/05/20 02:56:24;;;;;;;2.97;2.60;;;10.50;99.90;;;;;;5012409;28;20194;-64
2021/05/20 02:58:52;;;;;;;2.45;1.95;;;10.40;99.90;;;;;;5012667;28;20182;-65
2021/05/20 03:01:22;;;;;;;2.22;2.03;;;10.40;99.90;;;;;;5012242;28;20556;-65
2021/05/20 03:03:51;;;;;;;1.98;1.88;;;10.50;99.90;;;;;;5012087;28;20761;-65
2021/05/20 03:06:18;;;;;;;2.35;2.15;;;10.50;99.90;;;;;;5012162;28;20190;-65
2021/05/20 03:08:46;;;;;;;2.30;2.10;;;10.40;99.90;;;;;;5011786;28;20209;-64
2021/05/20 03:11:14;;;;;;;2.70;2.50;;;10.40;99.90;;;;;;5012192;28;20627;-65
2021/05/20 03:13:41;;;;;;;4.07;2.17;;;10.40;99.90;;;;;;5012017;28;20210;-65
2021/05/20 03:16:09;;;;;;;6.35;2.25;;;10.40;99.90;;;;;;5012517;28;20231;-65
2021/05/20 03:18:36;;;;;;;2.97;2.72;;;10.50;99.90;;;;;;5010647;28;20186;-65
2021/05/20 03:21:05;;;;;;;3.78;3.42;;;10.50;99.90;;;;;;5012022;28;20197;-65
2021/05/20 03:23:33;;;;;;;2.95;2.75;;;10.50;99.90;;;;;;5012183;28;20626;-65
2021/05/20 03:26:01;;;;;;;4.32;2.80;;;10.40;99.90;;;;;;5012240;28;20183;-64
2021/05/20 03:28:28;;;;;;;2.67;2.30;;;10.40;99.90;;;;;;5011810;28;20214;-64
2021/05/20 03:30:56;;;;;;;2.78;2.30;;;10.50;99.90;;;;;;5011822;28;20351;-64
2021/05/20 03:33:23;;;;;;;4.97;3.92;;;10.50;99.90;;;;;;5011642;28;20210;-64
2021/05/20 03:35:51;;;;;;;2.83;2.63;;;10.50;99.90;;;;;;5011976;28;20571;-64
2021/05/20 03:38:20;;;;;;;3.05;2.75;;;10.50;99.90;;;;;;5011753;28;20175;-65
2021/05/20 03:40:47;;;;;;;2.60;2.40;;;10.50;99.90;;;;;;5010450;28;20641;-65
2021/05/20 03:43:15;;;;;;;4.78;2.33;;;10.50;99.90;;;;;;5011882;28;20449;-65
2021/05/20 03:45:42;;;;;;;3.35;3.05;;;10.50;99.90;;;;;;5011780;28;20466;-65
2021/05/20 03:48:10;;;;;;;2.90;2.25;;;10.50;99.90;;;;;;5010023;28;20194;-64
2021/05/20 03:50:40;;;;;;;3.50;2.70;;;10.60;99.90;;;;;;5012153;28;20178;-64
2021/05/20 03:53:07;;;;;;;5.18;2.95;;;10.50;99.90;;;;;;5012381;28;20218;-66
2021/05/20 03:55:36;;;;;;;3.75;3.10;;;10.50;99.90;;;;;;5012686;28;20205;-64
2021/05/20 03:58:03;;;;;;;4.72;2.70;;;10.50;99.90;;;;;;5010672;28;20577;-65
2021/05/20 04:00:31;;;;;;;2.70;2.20;;;10.50;99.90;;;;;;5011663;28;20193;-65
2021/05/20 04:02:59;;;;;;;3.22;2.85;;;10.50;99.90;;;;;;5010726;28;20228;-65
2021/05/20 04:05:26;;;;;;;5.05;3.45;;;10.60;99.90;;;;;;4998715;28;20197;-65
2021/05/20 04:07:54;;;;;;;3.00;2.80;;;10.50;99.90;;;;;;4991912;28;20175;-65
2021/05/20 04:10:24;;;;;;;3.20;2.90;;;10.50;99.90;;;;;;4992035;28;20203;-65
2021/05/20 04:12:52;;;;;;;5.13;3.80;;;10.60;99.90;;;;;;4991313;28;20210;-64
2021/05/20 04:15:20;;;;;;;3.72;2.58;;;10.70;99.90;;;;;;4991338;28;20426;-65
2021/05/20 04:17:47;;;;;;;4.68;3.35;;;10.70;99.90;;;;;;4991569;28;20179;-65
2021/05/20 04:20:16;;;;;;;4.88;3.80;;;10.70;99.90;;;;;;4990656;28;20550;-65
2021/05/20 04:22:43;;;;;;;7.05;2.95;;;10.70;99.90;;;;;;4990005;28;20211;-65
2021/05/20 04:25:12;;;;;;;4.15;3.85;;;10.60;99.90;;;;;;4991193;28;20182;-65
2021/05/20 04:27:39;;;;;;;3.78;3.47;;;10.60;99.90;;;;;;4990030;28;20228;-65
2021/05/20 04:30:10;;;;;;;3.95;3.60;;;10.70;99.90;;;;;;4991276;28;20571;-65
2021/05/20 04:32:37;;;;;;;3.38;3.08;;;10.70;99.90;;;;;;4990885;28;20207;-65
2021/05/20 04:35:06;;;;;;;4.43;3.40;;;10.80;99.90;;;;;;4991237;28;20655;-65
2021/05/20 04:37:34;;;;;;;4.15;3.55;;;10.90;99.90;;;;;;4991058;28;20241;-64
2021/05/20 04:40:02;;;;;;;3.95;3.55;;;10.90;99.90;;;;;;4991146;28;20337;-64
2021/05/20 04:42:30;;;;;;;3.17;2.87;;;10.90;99.90;;;;;;4989599;28;20284;-64
2021/05/20 04:44:57;;;;;;;4.00;3.60;;;11.00;99.90;;;;;;4991112;28;20464;-64
2021/05/20 04:47:26;;;;;;;4.33;3.23;;;11.10;99.90;;;;;;4991244;28;20175;-64
2021/05/20 04:49:54;;;;;;;3.90;3.50;;;11.30;99.90;;;;;;4991297;28;20557;-64
2021/05/20 04:52:22;;;;;;;4.13;3.70;;;11.30;99.90;;;;;;4991489;28;20420;-65
2021/05/20 04:54:50;;;;;;;3.23;2.90;;;11.40;99.90;;;;;;4991023;28;20193;-65
2021/05/20 04:57:17;;;;;;;4.50;3.57;;;11.40;99.90;;;;;;4989807;28;20448;-64
2021/05/20 04:59:45;;;;;;;4.37;3.77;;;11.50;99.90;;;;;;4990933;28;20752;-64
2021/05/20 05:02:12;;;;;;;3.60;3.30;;;11.40;99.90;;;;;;4990613;28;20401;-64
2021/05/20 05:04:41;;;;;;;3.93;3.53;;;11.60;99.90;;;;;;4991048;28;20483;-64
2021/05/20 05:07:09;;;;;;;4.63;3.87;;;11.70;99.90;;;;;;4990975;28;20422;-64
2021/05/20 05:09:36;;;;;;;4.80;4.33;;;11.80;99.90;;;;;;4990679;28;20664;-65
2021/05/20 05:12:05;;;;;;;5.60;3.90;;;11.90;99.90;;;;;;4990698;28;20446;-64
2021/05/20 05:14:33;;;;;;;3.87;3.50;;;12.00;99.90;;;;;;4990396;28;20426;-64
2021/05/20 05:17:00;;;;;;;5.13;4.00;;;11.90;99.90;;;;;;4990700;28;20700;-64
2021/05/20 05:19:28;;;;;;;4.67;4.27;;;11.90;99.90;;;;;;4990706;28;20440;-64
2021/05/20 05:22:00;;;;;;;4.80;4.40;;;12.20;99.90;;;;;;4990499;28;20426;-65
2021/05/20 05:24:28;;;;;;;3.50;3.20;;;12.60;99.90;;;;;;4990641;28;20461;-65
2021/05/20 05:26:57;;;;;;;3.70;3.40;;;13.00;99.90;;;;;;4990727;28;20429;-66
2021/05/20 05:29:25;;;;;;;3.67;3.37;;;13.70;99.90;;;;;;4990660;28;20787;-65
2021/05/20 05:31:53;;;;;;;4.57;4.13;;;13.90;99.90;;;;;;4991983;28;20426;-65
2021/05/20 05:34:21;;;;;;;4.07;3.67;;;13.80;99.90;;;;;;4997040;28;20428;-65
2021/05/20 05:36:48;;;;;;;4.30;3.93;;;13.90;99.90;;;;;;5000425;28;20444;-65
2021/05/20 05:39:17;;;;;;;5.03;4.53;;;13.80;99.90;;;;;;4994100;28;20480;-65
2021/05/20 05:41:45;;;;;;;4.57;3.97;;;13.80;99.90;;;;;;4994040;28;20384;-65
2021/05/20 05:44:12;;;;;;;4.30;3.90;;;13.70;99.90;;;;;;4993977;28;20878;-65
2021/05/20 05:46:42;;;;;;;3.70;2.90;;;13.50;99.90;;;;;;4994324;28;20880;-63
2021/05/20 05:49:13;;;;;;;4.80;4.40;;;13.60;99.90;;;;;;4994251;28;20556;-65
2021/05/20 05:51:45;;;;;;;6.40;4.80;;;13.80;99.90;;;;;;4994128;28;20654;-65
2021/05/20 05:54:13;;;;;;;4.30;3.53;;;13.90;99.90;;;;;;4993972;28;20544;-64
2021/05/20 05:56:42;;;;;;;3.93;3.63;;;14.20;99.90;;;;;;4994112;28;20428;-65
2021/05/20 05:59:15;;;;;;;5.00;4.60;;;14.30;99.90;;;;;;4994260;28;20393;-65
2021/05/20 06:01:43;;;;;;;3.63;3.30;;;14.50;99.90;;;;;;4993780;28;21113;-64
2021/05/20 06:04:11;;;;;;;5.07;4.40;;;14.10;99.90;;;;;;4994061;28;20428;-64
2021/05/20 06:06:38;;;;;;;4.73;3.60;;;14.00;99.90;;;;;;4994001;28;20854;-64
2021/05/20 06:09:07;;;;;;;4.60;4.00;;;14.20;99.90;;;;;;4993897;28;20804;-65
2021/05/20 06:11:34;;;;;;;6.00;4.00;;;14.20;99.90;;;;;;4993580;28;20392;-65
2021/05/20 06:14:05;;;;;;;6.27;4.77;;;14.30;99.90;;;;;;4993589;28;20425;-65
2021/05/20 06:16:35;;;;;;;4.20;3.87;;;14.20;99.90;;;;;;4992395;28;20433;-65
2021/05/20 06:19:03;;;;;;;3.77;3.57;;;13.90;99.90;;;;;;4994226;28;20903;-65
2021/05/20 06:21:31;;;;;;;18.17;15.10;;;14.10;99.90;;;;;;4993885;28;20769;-65
2021/05/20 06:24:00;;;;;;;3.83;3.43;;;14.20;99.90;;;;;;4993955;28;20515;-65
2021/05/20 06:26:29;;;;;;;4.03;3.73;;;14.40;99.90;;;;;;4994085;28;20433;-65
2021/05/20 06:28:56;;;;;;;8.00;6.40;;;14.40;99.90;;;;;;4993789;28;20411;-65
2021/05/20 06:31:25;;;;;;;3.70;3.40;;;14.40;99.90;;;;;;4993593;28;20411;-65
2021/05/20 06:33:53;;;;;;;4.90;3.93;;;14.40;99.90;;;;;;4977548;28;20929;-65
2021/05/20 06:36:21;;;;;;;4.47;3.97;;;14.40;99.90;;;;;;4993656;28;20726;-65
2021/05/20 06:38:48;;;;;;;7.83;4.93;;;14.50;99.90;;;;;;4994335;28;20949;-65
2021/05/20 06:41:16;;;;;;;7.23;4.70;;;14.50;99.90;;;;;;4991696;28;20894;-64
2021/05/20 06:43:43;;;;;;;3.93;2.63;;;14.50;99.90;;;;;;4992865;28;20456;-65
2021/05/20 06:46:11;;;;;;;4.63;3.70;;;14.50;99.90;;;;;;4992895;28;20492;-65
2021/05/20 06:48:39;;;;;;;6.40;4.50;;;14.60;99.90;;;;;;4993969;28;20946;-65
2021/05/20 06:51:07;;;;;;;4.03;3.10;;;14.70;99.90;;;;;;4993238;28;20454;-65
2021/05/20 06:53:36;;;;;;;8.10;3.60;;;14.70;99.90;;;;;;4989787;28;20431;-66
2021/05/20 06:56:08;;;;;;;11.87;10.67;;;14.70;99.90;;;;;;4992732;28;20405;-65
2021/05/20 07:01:22;;;;;;;3.33;3.03;;;14.50;99.90;;;;;;4988161;28;20788;-66
2021/05/20 07:03:50;;;;;;;3.17;2.53;;;14.80;99.90;;;;;;4992299;28;20515;-65
2021/05/20 07:06:18;;;;;;;3.63;3.23;;;14.70;99.90;;;;;;4992392;28;20503;-64
2021/05/20 07:08:46;;;;;;;4.83;3.30;;;14.90;99.90;;;;;;4991292;28;20548;-65
2021/05/20 07:11:13;;;;;;;3.37;2.70;;;15.10;99.90;;;;;;4992008;28;20992;-65
2021/05/20 07:13:41;;;;;;;2.53;2.30;;;15.10;99.90;;;;;;4991826;28;20442;-66
2021/05/20 07:16:09;;;;;;;4.97;3.30;;;15.40;99.90;;;;;;4992234;28;20400;-66
2021/05/20 07:18:36;;;;;;;2.60;2.20;;;15.40;99.90;;;;;;4991832;28;20401;-64
2021/05/20 07:21:05;;;;;;;11.30;7.83;;;15.60;99.90;;;;;;4992242;28;20520;-66
2021/05/20 07:23:33;;;;;;;4.50;2.87;;;15.70;99.90;;;;;;4991970;28;20838;-67
2021/05/20 07:26:01;;;;;;;3.07;2.50;;;15.70;99.90;;;;;;4992330;28;20409;-65
2021/05/20 07:28:28;;;;;;;2.70;2.50;;;15.70;99.90;;;;;;4992939;28;20441;-66
2021/05/20 07:30:56;;;;;;;3.20;2.63;;;15.90;99.90;;;;;;4992848;28;21151;-65
2021/05/20 07:33:24;;;;;;;2.20;2.00;;;15.60;99.90;;;;;;4993010;28;20421;-65
2021/05/20 07:35:52;;;;;;;2.33;2.13;;;15.20;99.90;;;;;;4991719;28;20428;-65
2021/05/20 07:38:21;;;;;;;2.73;2.10;;;15.10;99.90;;;;;;4992949;28;20389;-65
2021/05/20 07:40:49;;;;;;;4.10;1.80;;;15.10;99.90;;;;;;4992585;28;20389;-66
2021/05/20 07:43:16;;;;;;;1.90;1.40;;;14.70;99.90;;;;;;4992450;28;20456;-66
2021/05/20 07:45:44;;;;;;;2.70;1.50;;;14.50;99.90;;;;;;4992681;28;20488;-66
2021/05/20 07:48:12;;;;;;;1.97;1.57;;;14.40;99.90;;;;;;4992430;28;20422;-65
2021/05/20 07:50:39;;;;;;;1.87;1.10;;;14.40;99.90;;;;;;4991888;28;20973;-66
2021/05/20 07:53:07;;;;;;;1.50;1.30;;;14.60;99.90;;;;;;4992063;28;20416;-66
2021/05/20 07:55:35;;;;;;;2.03;1.50;;;14.60;99.90;;;;;;4990933;28;20998;-65
2021/05/20 07:58:04;;;;;;;2.50;2.30;;;14.60;99.90;;;;;;4992352;28;20488;-66
2021/05/20 08:00:34;;;;;;;3.10;2.47;;;14.80;99.90;;;;;;4992346;28;21097;-66
2021/05/20 08:03:05;;;;;;;4.00;2.47;;;14.80;99.90;;;;;;4991790;28;20534;-66
2021/05/20 08:05:37;;;;;;;2.93;2.63;;;14.60;99.90;;;;;;4990772;28;20908;-66
2021/05/20 08:08:14;;;;;;;2.30;1.53;;;14.60;99.90;;;;;;4992547;28;20422;-66
2021/05/20 08:10:54;;;;;;;2.73;2.20;;;14.70;99.90;;;;;;4991596;28;20439;-66
2021/05/20 08:13:22;;;;;;;2.13;1.67;;;14.90;99.90;;;;;;4991919;28;20416;-66
2021/05/20 08:15:50;;;;;;;2.10;1.57;;;15.20;99.90;;;;;;4993135;28;20393;-66
2021/05/20 08:18:18;;;;;;;2.13;1.87;;;15.20;99.90;;;;;;4994386;28;20541;-64
2021/05/20 08:20:46;;;;;;;2.00;1.23;;;15.20;99.90;;;;;;4994632;28;20404;-67
2021/05/20 08:23:19;;;;;;;2.63;1.40;;;15.40;99.90;;;;;;4994646;28;20413;-67
2021/05/20 08:25:48;;;;;;;1.73;1.60;;;15.30;99.90;;;;;;4994743;28;20396;-66
2021/05/20 08:28:18;;;;;;;2.40;1.50;;;15.40;99.90;;;;;;5047406;23;20498;-82
2021/05/20 08:30:46;;;;;;;3.10;1.20;;;15.40;99.90;;;;;;5065937;28;20449;-82
2021/05/20 08:33:14;;;;;;;2.65;1.67;;;15.30;99.90;;;;;;5045515;28;20425;-84
2021/05/20 08:35:42;;;;;;;3.20;1.58;;;15.30;99.90;;;;;;5070166;28;20445;-82
2021/05/20 08:38:09;;;;;;;2.73;1.57;;;15.10;99.90;;;;;;5057356;28;20189;-82
2021/05/20 08:40:37;;;;;;;2.03;1.60;;;14.80;99.90;;;;;;5047855;28;20711;-83
2021/05/20 08:43:05;;;;;;;1.50;0.80;;;14.80;99.90;;;;;;5034173;28;20436;-84
2021/05/20 08:45:34;;;;;;;2.70;1.65;;;15.10;99.90;;;;;;5023014;28;20455;-82
2021/05/20 08:48:02;;;;;;;2.37;1.33;;;15.20;99.90;;;;;;5017644;28;20237;-82
2021/05/20 08:50:35;;;;;;;2.60;1.30;;;14.90;99.90;;;;;;5029880;28;20819;-83
2021/05/20 08:53:03;;;;;;;4.23;1.27;;;14.90;99.90;;;;;;4998936;28;20385;-84
2021/05/20 08:55:36;;;;;;;2.13;0.97;;;15.40;99.90;;;;;;5007723;28;20438;-83
2021/05/20 08:58:08;;;;;;;1.87;1.40;;;15.50;99.90;;;;;;5010032;28;20479;-84
2021/05/20 09:00:36;;;;;;;1.60;1.00;;;15.60;99.90;;;;;;5010018;28;20393;-84
2021/05/20 09:03:06;;;;;;;1.30;1.20;;;15.70;99.90;;;;;;5007971;28;20400;-83
2021/05/20 09:05:34;;;;;;;1.40;1.00;;;15.70;99.90;;;;;;5016639;28;20434;-84
2021/05/20 09:08:05;;;;;;;1.40;1.13;;;15.80;99.90;;;;;;5004930;28;20423;-84
2021/05/20 09:10:34;;;;;;;1.60;1.00;;;15.80;99.90;;;;;;5005969;28;20520;-85
2021/05/20 09:13:04;;;;;;;4.43;1.10;;;16.00;99.90;;;;;;5006289;28;20440;-85
2021/05/20 09:15:35;;;;;;;3.13;1.27;;;16.00;99.90;;;;;;5024248;28;20485;-83
2021/05/20 09:18:11;;;;;;;1.10;0.90;;;15.50;99.90;;;;;;5016441;28;20445;-85
2021/05/20 09:20:41;;;;;;;1.53;1.10;;;15.40;99.90;;;;;;5032009;28;20448;-84
2021/05/20 09:23:11;;;;;;;1.47;1.33;;;15.30;99.90;;;;;;5015152;28;20408;-83
2021/05/20 09:25:41;;;;;;;2.20;1.80;;;15.50;99.90;;;;;;5007901;28;20422;-84
2021/05/20 09:28:10;;;;;;;1.60;1.27;;;15.80;99.90;;;;;;5003411;28;20453;-85
2021/05/20 09:30:40;;;;;;;1.20;1.10;;;16.00;99.90;;;;;;5004452;28;20462;-82
2021/05/20 09:33:10;;;;;;;2.53;1.47;;;16.40;99.90;;;;;;5005654;28;20433;-82
2021/05/20 09:35:39;;;;;;;3.70;2.10;;;16.40;99.90;;;;;;5006467;28;20444;-83
2021/05/20 09:38:10;;;;;;;4.10;3.87;;;16.30;99.90;;;;;;5016150;28;20519;-83
2021/05/20 09:40:39;;;;;;;2.47;2.13;;;16.10;99.90;;;;;;5023582;28;20384;-83
2021/05/20 09:43:15;;;;;;;1.63;1.33;;;16.00;99.90;;;;;;5023960;28;20496;-82
2021/05/20 09:45:44;;;;;;;1.30;1.20;;;16.20;99.90;;;;;;5029674;28;20417;-83
2021/05/20 09:48:12;;;;;;;3.00;1.83;;;16.40;99.90;;;;;;5023796;28;20495;-83
2021/05/20 09:50:42;;;;;;;1.73;1.40;;;16.90;99.90;;;;;;5022363;28;20435;-83
2021/05/20 09:53:12;;;;;;;1.70;1.60;;;17.40;99.90;;;;;;5022033;28;20425;-84
2021/05/20 09:55:50;;;;;;;2.00;1.63;;;17.90;99.90;;;;;;5022481;28;21021;-84
2021/05/20 09:58:18;;;;;;;1.57;1.13;;;17.80;99.90;;;;;;5021815;28;20439;-86
2021/05/20 10:00:48;;;;;;;1.40;1.27;;;17.80;99.90;;;;;;5020124;28;20767;-82
2021/05/20 10:03:18;;;;;;;1.37;1.07;;;17.30;99.90;;;;;;5019480;28;20411;-82
2021/05/20 10:05:47;;;;;;;1.90;1.60;;;16.90;99.90;;;;;;5022955;28;20425;-82
2021/05/20 10:08:17;;;;;;;1.60;1.40;;;17.00;99.90;;;;;;5023884;28;20464;-83
2021/05/20 10:10:46;;;;;;;3.20;1.80;;;16.80;99.90;;;;;;5022775;28;20449;-82
2021/05/20 10:13:16;;;;;;;1.50;1.40;;;16.70;99.90;;;;;;5022262;28;20388;-85
2021/05/20 10:15:45;;;;;;;1.30;1.03;;;16.90;99.90;;;;;;5031577;28;20413;-83
2021/05/20 10:18:15;;;;;;;1.50;1.30;;;17.50;99.90;;;;;;5025838;28;20427;-83
2021/05/20 10:20:45;;;;;;;8.33;1.90;;;17.30;99.90;;;;;;5026188;28;20441;-83
2021/05/20 10:23:14;;;;;;;1.37;1.27;;;17.00;99.90;;;;;;5024695;28;20421;-82
2021/05/20 10:25:43;;;;;;;2.40;1.50;;;17.00;99.90;;;;;;5025563;28;20414;-84
2021/05/20 10:28:19;;;;;;;2.43;1.90;;;17.00;99.90;;;;;;5026168;28;20498;-83
2021/05/20 10:30:49;;;;;;;2.37;1.57;;;17.00;99.90;;;;;;5025092;28;20532;-83
2021/05/20 10:33:24;;;;;;;1.83;1.40;;;17.30;99.90;;;;;;5030384;28;20392;-84
2021/05/20 10:35:53;;;;;;;1.80;1.23;;;17.20;99.90;;;;;;5032956;28;20736;-83
2021/05/20 10:38:37;;;;;;;1.93;1.70;;;17.30;99.90;;;;;;5025740;28;20525;-84
2021/05/20 10:41:13;;;;;;;2.03;1.53;;;17.40;99.90;;;;;;5023691;28;20439;-85
2021/05/20 10:43:42;;;;;;;3.13;1.10;;;17.90;99.90;;;;;;5024499;28;20390;-84
2021/05/20 10:46:11;;;;;;;1.73;1.63;;;17.90;99.90;;;;;;5028020;28;20436;-82
2021/05/20 10:48:49;;;;;;;5.80;2.53;;;17.60;99.90;;;;;;5029123;28;20412;-83
2021/05/20 10:51:20;;;;;;;2.40;1.47;;;17.30;99.90;;;;;;5024830;28;20431;-84
2021/05/20 10:54:15;;;;;;;1.63;1.30;;;16.70;99.90;;;;;;5019847;28;20404;-84
2021/05/20 10:57:04;;;;;;;2.10;1.87;;;16.60;99.90;;;;;;5021613;28;20431;-83
2021/05/20 10:59:42;;;;;;;2.00;1.67;;;16.40;99.90;;;;;;5023419;28;20411;-84
2021/05/20 11:02:37;;;;;;;2.23;1.60;;;16.00;99.90;;;;;;5026908;28;20403;-83
2021/05/20 11:05:55;;;;;;;1.93;1.70;;;16.00;99.90;;;;;;5024377;28;20506;-81
2021/05/20 11:08:56;;;;;;;2.93;1.93;;;16.00;99.90;;;;;;5037085;28;20411;-84
2021/05/20 11:11:48;;;;;;;1.47;1.37;;;16.60;99.90;;;;;;5038691;28;20449;-88
2021/05/20 11:14:45;;;;;;;2.03;1.77;;;16.90;99.90;;;;;;5039615;28;20372;-87
2021/05/20 11:17:37;;;;;;;2.87;1.90;;;17.20;99.90;;;;;;5038717;28;20514;-86
2021/05/20 11:20:32;;;;;;;6.43;1.77;;;17.60;99.90;;;;;;5035313;28;20436;-87
2021/05/20 11:23:23;;;;;;;3.33;2.27;;;17.20;99.90;;;;;;5021623;28;20437;-84
2021/05/20 11:26:06;;;;;;;2.40;2.00;;;16.60;99.90;;;;;;5039534;28;20373;-86
2021/05/20 11:28:48;;;;;;;2.07;1.40;;;16.70;99.90;;;;;;5038700;28;20415;-85
2021/05/20 11:31:21;;;;;;;1.77;1.67;;;16.90;99.90;;;;;;5034274;28;20499;-86
2021/05/20 11:34:23;;;;;;;1.43;1.33;;;16.50;99.90;;;;;;5029633;28;20442;-87
2021/05/20 11:36:53;;;;;;;3.43;1.90;;;16.10;99.90;;;;;;5024911;28;20480;-84
2021/05/20 11:39:22;;;;;;;2.30;1.80;;;16.20;99.90;;;;;;5028815;28;20404;-85
2021/05/20 11:41:51;;;;;;;1.83;1.50;;;15.80;99.90;;;;;;5026811;28;20404;-85
2021/05/20 11:44:20;;;;;;;3.10;1.40;;;15.70;99.90;;;;;;5027502;28;20950;-85
2021/05/20 11:47:02;;;;;;;1.20;1.00;;;15.90;99.90;;;;;;5025845;28;20463;-85
2021/05/20 11:49:31;;;;;;;1.20;0.97;;;16.20;99.90;;;;;;5019001;28;20481;-86
2021/05/20 11:52:06;;;;;;;1.33;0.87;;;16.40;99.90;;;;;;5021789;28;20433;-85
2021/05/20 11:54:35;;;;;;;1.60;1.07;;;16.20;99.90;;;;;;5023409;28;20407;-85
2021/05/20 11:57:07;;;;;;;1.53;1.33;;;16.20;99.90;;;;;;5051525;28;20455;-84
2021/05/20 11:59:49;;;;;;;3.10;1.80;;;16.60;99.90;;;;;;5052656;28;20397;-85
2021/05/20 12:02:20;;;;;;;1.20;1.03;;;16.90;99.90;;;;;;5054008;28;20418;-85
2021/05/20 12:04:57;;;;;;;2.23;0.83;;;16.50;99.90;;;;;;5054245;28;20431;-85
2021/05/20 12:07:27;;;;;;;1.40;1.30;;;15.90;99.90;;;;;;5053658;28;20474;-85
2021/05/20 12:10:09;;;;;;;1.30;1.00;;;15.50;99.90;;;;;;5052322;28;20410;-85
2021/05/20 12:12:38;;;;;;;2.97;1.60;;;15.40;99.90;;;;;;5051162;28;20426;-85
2021/05/20 12:15:15;;;;;;;1.70;1.00;;;15.40;99.90;;;;;;5052834;28;20470;-84
2021/05/20 12:17:44;;;;;;;1.30;0.80;;;15.30;99.90;;;;;;5053217;28;20434;-85
2021/05/20 12:23:22;;;;;;;1.63;1.33;;;16.00;99.90;;;;;;5054338;28;20427;-86
2021/05/20 12:30:52;;;;;;;2.30;1.90;;;16.90;99.90;;;;;;4961624;28;20434;-86
2021/05/20 12:46:21;;;;;;;1.40;1.20;;;16.40;99.90;;;;;;4948739;29;20514;-86
2021/05/20 13:30:41;;;;;;;1.20;0.80;;;16.70;99.90;;;;;;4914705;29;20455;-85
2021/05/20 13:47:00;;;;;;;1.33;1.00;;;16.50;99.90;;;;;;4898428;29;20589;-85
2021/05/20 14:03:16;;;;;;;1.77;1.10;;;17.00;99.90;;;;;;4947989;29;20415;-86
2021/05/20 14:18:23;;;;;;;1.30;0.97;;;17.20;99.90;;;;;;4992387;23;20480;-67
2021/05/20 14:20:51;;;;;;;1.63;1.07;;;17.50;99.90;;;;;;4995307;28;20805;-69
2021/05/20 14:23:19;;;;;;;1.00;0.70;;;17.60;99.90;;;;;;4996554;28;20552;-69
2021/05/20 14:25:47;;;;;;;1.10;0.90;;;17.80;99.90;;;;;;4997012;28;20646;-68
2021/05/20 14:28:14;;;;;;;1.10;0.80;;;17.80;99.90;;;;;;5029710;23;20484;-70
2021/05/20 14:30:42;;;;;;;1.73;0.80;;;17.60;99.90;;;;;;5014624;28;20436;-72
2021/05/20 14:33:12;;;;;;;1.67;0.87;;;17.30;99.90;;;;;;5014273;28;21000;-69
2021/05/20 14:35:41;;;;;;;1.90;0.93;;;17.20;99.90;;;;;;5014613;28;20918;-70
2021/05/20 14:38:09;;;;;;;2.80;2.13;;;17.20;99.90;;;;;;5014703;28;20718;-72
2021/05/20 14:40:37;;;;;;;2.03;1.20;;;17.30;99.90;;;;;;5014407;28;20403;-69
2021/05/20 14:43:05;;;;;;;1.70;1.60;;;17.50;99.90;;;;;;5014248;28;20491;-72
2021/05/20 14:45:33;;;;;;;1.10;0.77;;;17.60;99.90;;;;;;5013990;28;20450;-70